Flight Track Log - Related Links

Times and Time Zones

All times are in EDT time to prevent confusion due to time zone crossing. See the N983CA flight status page for this flight to view local times or setup timezone preferences in your user account.

Time Position Orientation Groundspeed Altitude Reporting Facility
EDT Latitude Longitude Course Direction KTS MPH feet Rate Location/Type
Tue 08:34:00 AM 37.0122 -119.9532 318° Northwest  Level FlightAware Approximate
Tue 08:34:07 AM 36.9186 -119.8539 313° West 270 311 7,400  Level Oakland Center
Tue 08:35:00 AM 37.0914 -120.0414 321° Northwest  Level FlightAware Approximate
Tue 08:35:07 AM 36.9786 -119.9158 320° Northwest 279 321 9,900  Level Oakland Center
Tue 08:36:00 AM 37.1743 -120.1243 321° Northwest  Level FlightAware Approximate
Tue 08:36:08 AM 37.0475 -119.9886 320° Northwest 324 373 10,000  Level Oakland Center
Tue 08:37:00 AM 37.2573 -120.2072 322° Northwest  Level FlightAware Approximate
Tue 08:37:08 AM 37.1236 -120.0689 320° Northwest 349 402 10,000  Level Oakland Center
Tue 08:38:00 AM 37.3402 -120.2902 322° Northwest  Level FlightAware Approximate
Tue 08:38:08 AM 37.2006 -120.1506 320° Northwest 365 420 10,000  Level Oakland Center
Tue 08:39:00 AM 37.4224 -120.3743 313° West  Level FlightAware Approximate
Tue 08:39:08 AM 37.2786 -120.2339 320° Northwest 372 428 10,000  Level Oakland Center
Tue 08:40:08 AM 37.3164 -120.3539 292° West 377 434 10,000 56 Level Oakland Center
Tue 08:40:56 AM 37.3333 -120.4667 281° West 383 441 10,100 56 Climbing Northern Cal TRACON
Tue 08:41:56 AM 37.3667 -120.5833 290° West 382 440 10,100  Level Northern Cal TRACON
Tue 08:42:44 AM 37.3833 -120.7000 280° West 383 441 10,100  Level Northern Cal TRACON
Tue 08:43:50 AM 37.4167 -120.8333 288° West 383 441 10,100  Level Northern Cal TRACON
Tue 08:44:50 AM 37.4333 -120.9667 279° West 386 444 10,100  Level Northern Cal TRACON
Tue 08:45:50 AM 37.4500 -121.0833 280° West 382 440 10,100  Level Northern Cal TRACON
Tue 08:46:50 AM 37.4833 -121.2333 286° West 378 435 10,100  Level Northern Cal TRACON
Tue 08:47:44 AM 37.4833 -121.3500 270° West 382 440 10,100  Level Northern Cal TRACON
Tue 08:48:44 AM 37.4833 -121.4833 270° West 378 435 10,100  Level Northern Cal TRACON
Tue 08:49:44 AM 37.4833 -121.6167 270° West 379 436 10,100 -48 Level Northern Cal TRACON
Tue 08:50:50 AM 37.4833 -121.7500 270° West 314 361 10,000 -818 Descending Northern Cal TRACON
Tue 08:51:56 AM 37.4833 -121.8500 270° West 283 326 8,300 -1,381 Descending Northern Cal TRACON
Tue 08:52:56 AM 37.4833 -121.9500 270° West 267 307 7,100 -1,095 Descending Northern Cal TRACON
Tue 08:54:02 AM 37.5167 -122.0333 297° West 263 303 6,000 -1,400 Descending Northern Cal TRACON
Tue 08:54:56 AM 37.5333 -122.1167 284° West 256 295 4,300 -1,629 Descending Northern Cal TRACON
Tue 08:55:12 AM 37.5400 -122.1272 309° West 259 298 4,100 -1,500 Descending Oakland Center
Tue 08:56:12 AM 37.5647 -122.2100 291° West 256 295 2,400 -1,400 Descending Oakland Center
Tue 08:57:12 AM 37.5836 -122.2775 289° West 228 262 1,300 -1,100 Descending Oakland Center

Login

Don't have an account? Register now (free) for customized features, flight alerts, and more!